Time;durP1;ratioP1;P1;durP2;ratioP2;P2;SDS_P1;SDS_P2;PMS_P1;PMS_P2;Temp;Humidity;BMP_temperature;BMP_pressure;BME280_temperature;BME280_humidity;BME280_pressure;Samples;Min_cycle;Max_cycle;Signal;HPM_P1;HPM_P2
2022/10/10 00:01:33;;;;;;;2.80;2.58;;;;;;;12.32;71.67;100459.56;5003758;28;20812;-73
2022/10/10 00:03:59;;;;;;;4.97;3.13;;;;;;;12.33;71.78;100461.22;4994044;28;20473;-74
2022/10/10 00:06:24;;;;;;;3.17;2.73;;;;;;;12.31;71.64;100456.06;5011026;28;20583;-74
2022/10/10 00:08:50;;;;;;;3.67;2.63;;;;;;;12.29;71.82;100462.81;5009772;28;20413;-74
2022/10/10 00:11:18;;;;;;;3.50;3.00;;;;;;;12.28;71.98;100461.97;5012397;28;20401;-73
2022/10/10 00:13:44;;;;;;;3.13;2.78;;;;;;;12.29;72.31;100468.25;5006661;28;20397;-73
2022/10/10 00:16:10;;;;;;;8.07;2.55;;;;;;;12.26;72.04;100466.88;4993986;28;20418;-75
2022/10/10 00:18:37;;;;;;;7.53;3.17;;;;;;;12.26;72.20;100463.31;5002505;28;20404;-75
2022/10/10 00:21:02;;;;;;;3.33;3.00;;;;;;;12.24;72.13;100462.78;5007103;28;20511;-75
2022/10/10 00:23:28;;;;;;;4.43;2.83;;;;;;;12.24;72.21;100468.19;5010602;28;20918;-75
2022/10/10 00:25:53;;;;;;;5.20;3.00;;;;;;;12.21;72.08;100461.38;5012227;28;20466;-75
2022/10/10 00:28:18;;;;;;;3.33;2.97;;;;;;;12.19;72.35;100455.38;5012246;28;20451;-75
2022/10/10 00:30:44;;;;;;;5.30;3.20;;;;;;;12.17;72.35;100459.44;5012186;28;20486;-74
2022/10/10 00:33:09;;;;;;;5.53;2.70;;;;;;;12.17;72.01;100454.81;4998701;28;20797;-75
2022/10/10 00:35:35;;;;;;;3.67;3.00;;;;;;;12.17;71.87;100457.53;5000653;28;20412;-75
2022/10/10 00:38:00;;;;;;;3.83;2.90;;;;;;;12.18;71.81;100452.94;5002598;28;20410;-75
2022/10/10 00:40:26;;;;;;;7.97;2.70;;;;;;;12.18;71.90;100451.03;5003751;28;20396;-75
2022/10/10 00:42:51;;;;;;;3.20;2.90;;;;;;;12.19;71.86;100452.66;5012110;28;20389;-75
2022/10/10 00:45:47;;;;;;;3.60;2.87;;;;;;;12.19;71.78;100447.22;5012177;28;20391;-74
2022/10/10 00:48:16;;;;;;;3.78;2.83;;;;;;;12.18;71.69;100451.03;5003945;28;20492;-75
2022/10/10 00:50:47;;;;;;;3.00;2.80;;;;;;;12.20;71.80;100454.31;4999117;28;20442;-73
2022/10/10 00:53:16;;;;;;;2.90;2.60;;;;;;;12.21;72.03;100441.53;5014524;28;20401;-75
2022/10/10 00:55:43;;;;;;;3.47;2.63;;;;;;;12.19;72.01;100444.50;5015677;28;20424;-75
2022/10/10 00:58:09;;;;;;;2.83;2.67;;;;;;;12.16;72.38;100447.72;5016037;28;20760;-75
2022/10/10 01:00:35;;;;;;;4.72;2.85;;;;;;;12.17;72.56;100446.66;5015818;28;20384;-75
2022/10/10 01:03:00;;;;;;;2.95;2.75;;;;;;;12.16;72.43;100441.47;5003850;28;20909;-75
2022/10/10 01:05:26;;;;;;;3.77;3.10;;;;;;;12.18;72.71;100444.78;5014423;28;20922;-74
2022/10/10 01:07:51;;;;;;;4.70;2.70;;;;;;;12.18;72.34;100445.59;5015640;28;20441;-74
2022/10/10 01:10:19;;;;;;;3.93;3.23;;;;;;;12.22;72.58;100435.84;5014260;28;20879;-75
2022/10/10 01:12:54;;;;;;;4.10;2.88;;;;;;;12.24;72.54;100441.84;5015985;28;20396;-74
2022/10/10 01:15:46;;;;;;;6.38;3.25;;;;;;;12.24;72.71;100431.00;5007559;28;20502;-75
2022/10/10 01:18:39;;;;;;;4.82;2.92;;;;;;;12.26;72.73;100436.97;5008610;28;20476;-75
2022/10/10 01:21:27;;;;;;;3.50;3.20;;;;;;;12.27;72.68;100437.81;5001571;28;20415;-75
2022/10/10 01:24:12;;;;;;;3.20;2.90;;;;;;;12.23;72.75;100433.94;5015047;28;20397;-75
2022/10/10 01:27:05;;;;;;;3.08;2.85;;;;;;;12.19;72.55;100424.66;5015658;28;20400;-75
2022/10/10 01:29:34;;;;;;;4.72;3.45;;;;;;;12.13;72.53;100431.13;5013805;28;20415;-75
2022/10/10 01:32:08;;;;;;;3.85;2.47;;;;;;;12.10;72.58;100434.34;5015255;28;20751;-75
2022/10/10 01:34:43;;;;;;;3.55;2.60;;;;;;;12.08;72.69;100441.94;5015383;28;20423;-75
2022/10/10 01:37:20;;;;;;;2.67;2.47;;;;;;;12.05;72.77;100435.13;5013818;28;20395;-74
2022/10/10 01:39:56;;;;;;;3.30;2.70;;;;;;;12.05;72.61;100437.84;5015390;28;20800;-75
2022/10/10 01:42:31;;;;;;;4.40;2.65;;;;;;;12.04;72.90;100432.66;5015564;28;20749;-75
2022/10/10 01:44:56;;;;;;;4.20;2.75;;;;;;;12.04;72.74;100429.94;5004742;28;20418;-74
2022/10/10 01:47:22;;;;;;;4.57;2.97;;;;;;;12.01;72.80;100435.88;5022505;28;20407;-75
2022/10/10 01:49:55;;;;;;;3.20;2.72;;;;;;;11.99;72.80;100429.91;5014883;28;20392;-75
2022/10/10 01:52:48;;;;;;;2.95;2.75;;;;;;;12.02;72.48;100441.06;5014984;28;20388;-75
2022/10/10 01:55:25;;;;;;;3.77;2.80;;;;;;;12.00;72.83;100440.50;5014847;28;20413;-75
2022/10/10 01:58:18;;;;;;;6.68;3.00;;;;;;;11.97;72.90;100432.84;5013863;28;20423;-75
2022/10/10 02:01:02;;;;;;;6.35;3.70;;;;;;;11.98;73.14;100423.66;5013873;28;20396;-74
2022/10/10 02:03:35;;;;;;;4.28;3.58;;;;;;;11.92;73.20;100430.09;5014670;28;20385;-75
2022/10/10 02:06:11;;;;;;;5.82;3.03;;;;;;;11.92;73.30;100421.94;5014929;28;20393;-75
2022/10/10 02:08:44;;;;;;;3.58;3.28;;;;;;;11.95;73.15;100421.44;5014429;28;20405;-75
2022/10/10 02:11:12;;;;;;;6.15;3.15;;;;;;;11.95;73.21;100414.09;5012365;28;20413;-75
2022/10/10 02:13:50;;;;;;;4.95;2.78;;;;;;;11.94;73.22;100409.75;5004922;28;20762;-74
2022/10/10 02:16:21;;;;;;;3.83;3.00;;;;;;;11.93;73.29;100413.53;5029875;28;20432;-74
2022/10/10 02:18:49;;;;;;;4.20;2.92;;;;;;;11.92;73.43;100414.59;5014457;28;20436;-74
2022/10/10 02:21:15;;;;;;;3.10;2.83;;;;;;;11.91;73.12;100417.59;5014327;28;20407;-75
2022/10/10 02:23:44;;;;;;;3.13;2.83;;;;;;;11.89;73.36;100404.25;5014538;28;20403;-75
2022/10/10 02:26:12;;;;;;;4.30;2.95;;;;;;;11.88;73.31;100407.25;5003435;28;20484;-75
2022/10/10 02:28:54;;;;;;;4.35;3.58;;;;;;;11.86;73.42;100412.91;5009719;28;20757;-75
2022/10/10 02:31:30;;;;;;;4.07;2.90;;;;;;;11.83;73.53;100407.16;5012414;28;20420;-75
2022/10/10 02:34:04;;;;;;;2.85;2.58;;;;;;;11.82;73.40;100402.81;5013015;28;20443;-75
2022/10/10 02:36:30;;;;;;;2.78;2.58;;;;;;;11.82;73.84;100414.47;5012960;28;20438;-75
2022/10/10 02:38:58;;;;;;;3.60;2.63;;;;;;;11.81;73.21;100414.75;5001113;28;20457;-74
2022/10/10 02:41:24;;;;;;;4.05;3.00;;;;;;;11.84;73.69;100425.09;5012718;28;20425;-75
2022/10/10 02:43:51;;;;;;;3.72;2.83;;;;;;;11.80;73.51;100408.50;5013907;28;20381;-74
2022/10/10 02:46:16;;;;;;;2.92;2.70;;;;;;;11.82;73.64;100411.78;5029214;28;20407;-74
2022/10/10 02:48:42;;;;;;;3.17;2.60;;;;;;;11.79;73.50;100408.75;5014059;28;20385;-75
2022/10/10 02:51:08;;;;;;;4.55;2.50;;;;;;;11.78;73.57;100405.22;5013107;28;20487;-75
2022/10/10 02:53:35;;;;;;;3.00;2.70;;;;;;;11.75;73.51;100402.19;5000955;28;20385;-75
2022/10/10 02:56:01;;;;;;;3.00;2.80;;;;;;;11.75;73.44;100404.91;5013653;28;20412;-75
2022/10/10 02:58:26;;;;;;;3.20;2.70;;;;;;;11.75;73.32;100405.75;5013668;28;20396;-75
2022/10/10 03:00:51;;;;;;;2.77;2.27;;;;;;;11.76;73.26;100409.25;5013620;28;20768;-74
2022/10/10 03:03:16;;;;;;;3.80;2.53;;;;;;;11.74;73.25;100400.56;5013573;28;20392;-75
2022/10/10 03:05:42;;;;;;;3.80;3.13;;;;;;;11.72;73.47;100406.22;5009106;28;20419;-75
2022/10/10 03:08:07;;;;;;;10.03;3.60;;;;;;;11.71;73.51;100401.88;5013340;28;20416;-75
2022/10/10 03:10:32;;;;;;;4.93;3.20;;;;;;;11.72;73.58;100416.28;5013618;28;20401;-75
2022/10/10 03:12:58;;;;;;;3.10;2.70;;;;;;;11.70;73.43;100416.53;5011980;28;20404;-75
2022/10/10 03:15:23;;;;;;;4.70;2.88;;;;;;;11.69;73.20;100420.28;5028480;28;20412;-75
2022/10/10 03:17:50;;;;;;;3.33;2.97;;;;;;;11.66;73.17;100417.22;5012802;28;21314;-74
2022/10/10 03:20:15;;;;;;;5.23;2.57;;;;;;;11.57;73.32;100407.91;5009034;28;20988;-75
2022/10/10 03:22:40;;;;;;;3.70;2.70;;;;;;;11.55;73.21;100412.78;5013259;28;20392;-75
2022/10/10 03:25:06;;;;;;;5.30;3.20;;;;;;;11.49;73.17;100417.31;5013173;28;20484;-75
2022/10/10 03:27:31;;;;;;;3.38;2.70;;;;;;;11.48;73.25;100417.56;5013140;28;20454;-75
2022/10/10 03:29:56;;;;;;;4.53;2.50;;;;;;;11.48;73.01;100418.38;5008449;28;20802;-75
2022/10/10 03:32:22;;;;;;;6.50;2.77;;;;;;;11.47;72.97;100424.88;5005195;28;20479;-75
2022/10/10 03:34:47;;;;;;;4.47;2.70;;;;;;;11.42;73.00;100425.66;5012832;28;20771;-74
2022/10/10 03:37:12;;;;;;;2.43;2.20;;;;;;;11.39;73.07;100428.03;5012880;28;20416;-74
2022/10/10 03:39:37;;;;;;;2.83;2.57;;;;;;;11.37;73.25;100430.16;5008350;28;20452;-74
2022/10/10 03:42:03;;;;;;;3.60;2.60;;;;;;;11.37;73.39;100433.72;5010513;28;20401;-74
2022/10/10 03:44:29;;;;;;;5.45;2.97;;;;;;;11.40;73.33;100429.66;5012853;28;20860;-74
2022/10/10 03:46:54;;;;;;;4.03;2.60;;;;;;;11.40;73.08;100432.38;5011328;28;20411;-74
2022/10/10 03:49:19;;;;;;;5.67;2.87;;;;;;;11.36;72.93;100436.69;5012841;28;20833;-74
2022/10/10 03:51:44;;;;;;;3.13;2.93;;;;;;;11.30;73.11;100437.66;5012742;28;20396;-75
2022/10/10 03:54:10;;;;;;;6.07;2.83;;;;;;;11.26;73.24;100429.19;5011700;28;20928;-75
2022/10/10 03:56:35;;;;;;;2.60;2.40;;;;;;;11.27;73.26;100428.13;5012693;28;20490;-75
2022/10/10 03:59:02;;;;;;;11.17;2.97;;;;;;;11.27;73.37;100433.56;5008351;28;20679;-75
2022/10/10 04:01:28;;;;;;;4.00;2.50;;;;;;;11.28;73.47;100427.06;5003338;28;20417;-75
2022/10/10 04:03:54;;;;;;;4.60;2.85;;;;;;;11.29;73.12;100434.16;5011919;28;20395;-75
2022/10/10 04:06:19;;;;;;;3.30;2.43;;;;;;;11.31;73.19;100428.47;5011125;28;20404;-75
2022/10/10 04:08:45;;;;;;;3.77;2.70;;;;;;;11.31;73.19;100418.44;5012507;28;20780;-74
2022/10/10 04:11:10;;;;;;;3.53;2.70;;;;;;;11.31;73.30;100418.44;5011797;28;20405;-75
2022/10/10 04:13:35;;;;;;;7.97;3.10;;;;;;;11.30;73.70;100426.81;5000827;28;20894;-74
2022/10/10 04:16:00;;;;;;;3.60;3.30;;;;;;;11.31;73.75;100420.31;5011331;28;20421;-75
2022/10/10 04:18:26;;;;;;;7.03;3.43;;;;;;;11.33;73.56;100424.41;5012214;28;20407;-74
2022/10/10 04:20:51;;;;;;;6.27;3.23;;;;;;;11.36;73.58;100423.13;5007509;28;20490;-75
2022/10/10 04:23:17;;;;;;;3.85;3.08;;;;;;;11.39;73.79;100412.56;5007239;28;20409;-75
2022/10/10 04:25:43;;;;;;;4.77;3.20;;;;;;;11.45;73.78;100408.88;5011767;28;20848;-74
2022/10/10 04:28:12;;;;;;;5.25;3.95;;;;;;;11.50;73.72;100410.81;5006093;28;20408;-74
2022/10/10 04:30:37;;;;;;;10.27;3.92;;;;;;;11.55;73.80;100402.75;5010605;28;20459;-74
2022/10/10 04:33:03;;;;;;;4.30;3.80;;;;;;;11.61;73.64;100417.19;5012068;28;20392;-74
2022/10/10 04:35:28;;;;;;;6.28;3.70;;;;;;;11.61;73.65;100409.88;5008063;28;20412;-74
2022/10/10 04:37:53;;;;;;;6.97;3.77;;;;;;;11.63;73.90;100413.13;5003621;28;20410;-75
2022/10/10 04:40:19;;;;;;;5.83;3.63;;;;;;;11.64;73.76;100413.97;5000611;28;20398;-74
2022/10/10 04:42:44;;;;;;;5.57;4.00;;;;;;;11.68;73.56;100420.53;5006722;28;20457;-75
2022/10/10 04:45:10;;;;;;;4.65;3.63;;;;;;;11.69;73.60;100401.25;5000279;28;20418;-75
2022/10/10 04:47:35;;;;;;;6.77;4.00;;;;;;;11.70;73.70;100416.53;4996567;28;21113;-75
2022/10/10 04:50:01;;;;;;;4.50;3.65;;;;;;;11.71;73.35;100423.59;5006438;28;20416;-74
2022/10/10 04:52:26;;;;;;;4.87;3.20;;;;;;;11.71;73.38;100420.88;5004490;28;20409;-74
2022/10/10 04:54:51;;;;;;;7.23;3.30;;;;;;;11.73;73.40;100413.28;5006394;28;20416;-74
2022/10/10 04:57:17;;;;;;;6.10;3.73;;;;;;;11.79;73.39;100416.88;4994284;28;20398;-74
2022/10/10 04:59:42;;;;;;;6.80;3.50;;;;;;;11.81;73.58;100414.75;4999170;28;20883;-74
2022/10/10 05:02:08;;;;;;;5.57;3.33;;;;;;;11.83;73.39;100410.72;5005459;28;20401;-73
2022/10/10 05:04:33;;;;;;;9.07;3.60;;;;;;;11.85;73.35;100416.72;5019078;28;20397;-74
2022/10/10 05:06:59;;;;;;;9.48;4.25;;;;;;;11.83;73.60;100418.84;5008290;28;20409;-74
2022/10/10 05:09:24;;;;;;;12.87;8.10;;;;;;;11.79;73.62;100428.56;5004547;28;20402;-74
2022/10/10 05:11:49;;;;;;;10.38;6.30;;;;;;;11.75;74.08;100429.34;5005885;28;20747;-74
2022/10/10 05:14:15;;;;;;;4.50;4.10;;;;;;;11.73;74.13;100407.03;5010596;28;20393;-74
2022/10/10 05:16:40;;;;;;;5.33;4.73;;;;;;;11.77;73.99;100411.72;5008115;28;20403;-74
2022/10/10 05:19:05;;;;;;;9.63;4.40;;;;;;;11.83;73.81;100412.59;5007162;28;20414;-74
2022/10/10 05:21:30;;;;;;;8.03;3.90;;;;;;;11.90;73.93;100419.47;5007492;28;20417;-74
2022/10/10 05:23:56;;;;;;;7.00;3.80;;;;;;;11.91;73.58;100407.56;5001276;28;20420;-75
2022/10/10 05:26:21;;;;;;;9.80;4.60;;;;;;;11.92;73.83;100420.03;5002723;28;20411;-74
2022/10/10 05:28:46;;;;;;;5.23;4.20;;;;;;;11.99;73.94;100421.75;4999598;28;20452;-74
2022/10/10 05:31:12;;;;;;;9.13;4.15;;;;;;;12.04;73.64;100425.34;5000196;28;20435;-74
2022/10/10 05:33:37;;;;;;;9.33;4.33;;;;;;;12.08;73.88;100429.19;5005560;28;20427;-74
2022/10/10 05:36:07;;;;;;;8.80;5.33;;;;;;;12.04;74.00;100427.22;5008683;28;20432;-75
2022/10/10 05:38:32;;;;;;;5.23;3.67;;;;;;;12.06;73.87;100431.31;5012241;28;20839;-74
2022/10/10 05:40:58;;;;;;;6.93;3.83;;;;;;;12.11;74.07;100431.41;5011866;28;20400;-74
2022/10/10 05:43:23;;;;;;;4.00;3.00;;;;;;;12.14;73.97;100432.78;4998601;28;20457;-74
2022/10/10 05:45:48;;;;;;;4.20;3.40;;;;;;;12.16;74.13;100422.47;5005421;28;20462;-74
2022/10/10 05:48:14;;;;;;;4.65;3.30;;;;;;;12.17;74.19;100433.09;5004048;28;20808;-74
2022/10/10 05:50:44;;;;;;;5.83;3.50;;;;;;;12.18;74.22;100425.75;5010873;28;20529;-74
2022/10/10 05:53:09;;;;;;;4.23;3.10;;;;;;;12.17;74.47;100419.50;5007941;28;20529;-73
2022/10/10 05:55:35;;;;;;;4.87;3.43;;;;;;;12.15;74.59;100435.22;5005015;28;20422;-74
2022/10/10 05:58:01;;;;;;;5.53;3.05;;;;;;;12.15;74.53;100437.94;5003335;28;20898;-74
2022/10/10 06:00:26;;;;;;;7.63;3.37;;;;;;;12.16;74.79;100438.75;5003988;28;20405;-74
2022/10/10 06:02:51;;;;;;;3.70;3.40;;;;;;;12.15;74.54;100443.38;5011408;28;20439;-74
2022/10/10 06:05:17;;;;;;;4.07;3.70;;;;;;;12.16;74.77;100430.59;5000021;28;20445;-74
2022/10/10 06:07:42;;;;;;;3.60;3.00;;;;;;;12.14;74.62;100428.16;5001013;28;20426;-74
2022/10/10 06:10:08;;;;;;;4.07;2.87;;;;;;;12.15;74.74;100435.22;5016745;28;20416;-74
2022/10/10 06:12:33;;;;;;;6.43;3.25;;;;;;;12.17;75.16;100421.41;5002381;28;20437;-74
2022/10/10 06:14:58;;;;;;;4.10;3.30;;;;;;;12.20;75.14;100429.03;5000597;28;20450;-74
2022/10/10 06:17:24;;;;;;;4.20;3.47;;;;;;;12.24;74.86;100427.44;5014824;28;20412;-74
2022/10/10 06:19:49;;;;;;;5.43;3.30;;;;;;;12.30;74.74;100442.72;5017661;28;20489;-74
2022/10/10 06:22:14;;;;;;;8.55;3.55;;;;;;;12.34;74.86;100438.41;5010831;28;20404;-74
2022/10/10 06:24:40;;;;;;;5.03;3.17;;;;;;;12.38;74.93;100445.78;5007321;28;20405;-74
2022/10/10 06:27:05;;;;;;;3.70;3.40;;;;;;;12.41;75.05;100439.03;5003517;28;20428;-74
2022/10/10 06:29:30;;;;;;;6.20;3.40;;;;;;;12.40;75.00;100438.22;5022905;28;20401;-74
2022/10/10 06:31:55;;;;;;;3.70;3.40;;;;;;;12.43;75.06;100445.03;5017503;28;20897;-74
2022/10/10 06:34:21;;;;;;;4.68;3.28;;;;;;;12.42;75.21;100454.25;5028604;28;20417;-74
2022/10/10 06:36:49;;;;;;;3.80;3.03;;;;;;;12.41;75.60;100458.06;5005490;28;20461;-74
2022/10/10 06:39:14;;;;;;;4.82;3.33;;;;;;;12.41;75.51;100444.47;5010689;28;20972;-75
2022/10/10 06:41:39;;;;;;;4.07;3.37;;;;;;;12.40;75.58;100451.81;5003227;28;20463;-76
2022/10/10 06:44:04;;;;;;;5.60;3.70;;;;;;;12.38;75.54;100458.56;5006588;28;20401;-75
2022/10/10 06:46:33;;;;;;;5.23;3.80;;;;;;;12.37;75.69;100470.50;5000602;28;20406;-75
2022/10/10 06:48:58;;;;;;;5.25;3.60;;;;;;;12.38;75.86;100469.44;5014790;28;20454;-75
2022/10/10 06:51:24;;;;;;;5.40;3.70;;;;;;;12.37;75.92;100468.63;5009693;28;20480;-75
2022/10/10 06:53:49;;;;;;;4.55;3.67;;;;;;;12.38;75.98;100472.97;5003866;28;20397;-75
2022/10/10 06:56:20;;;;;;;6.37;3.80;;;;;;;12.40;76.03;100478.16;5004819;28;20439;-76
2022/10/10 06:58:46;;;;;;;7.82;4.13;;;;;;;12.40;76.17;100486.31;5008165;28;20404;-75
2022/10/10 07:01:12;;;;;;;4.55;4.20;;;;;;;12.43;76.21;100483.91;5007104;28;20420;-76
2022/10/10 07:03:38;;;;;;;7.13;4.30;;;;;;;12.44;76.32;100485.56;5022641;28;20883;-75
2022/10/10 07:06:03;;;;;;;8.53;4.60;;;;;;;12.51;76.37;100481.81;5010713;28;20868;-75
2022/10/10 07:08:29;;;;;;;6.97;3.88;;;;;;;12.58;76.30;100488.66;5005712;28;20405;-75
2022/10/10 07:10:55;;;;;;;4.83;4.37;;;;;;;12.60;76.30;100483.78;5008326;28;20403;-76
2022/10/10 07:13:21;;;;;;;4.35;3.85;;;;;;;12.61;76.42;100481.91;5023038;28;20404;-76
2022/10/10 07:15:46;;;;;;;4.63;4.07;;;;;;;12.66;76.38;100490.91;5006932;28;20417;-75
2022/10/10 07:18:12;;;;;;;4.53;4.13;;;;;;;12.72;76.20;100489.06;5003874;28;20457;-76
2022/10/10 07:20:39;;;;;;;4.00;3.70;;;;;;;12.77;76.41;100492.66;5005762;28;20750;-75
2022/10/10 07:23:05;;;;;;;5.07;4.20;;;;;;;12.84;76.54;100495.97;5004414;28;20408;-75
2022/10/10 07:25:30;;;;;;;6.50;4.53;;;;;;;12.90;76.76;100497.66;5003843;28;20736;-76
2022/10/10 07:27:56;;;;;;;9.25;4.85;;;;;;;13.01;77.19;100491.22;5005681;28;20447;-75
2022/10/10 07:30:23;;;;;;;6.83;5.00;;;;;;;13.07;76.89;100494.00;5006155;28;20414;-75
2022/10/10 07:32:49;;;;;;;6.03;4.50;;;;;;;13.08;76.82;100496.44;5003985;28;20459;-76
2022/10/10 07:35:14;;;;;;;7.33;5.10;;;;;;;13.10;76.77;100501.66;5005723;28;20432;-75
2022/10/10 07:37:39;;;;;;;9.85;4.78;;;;;;;13.14;76.68;100497.34;5007934;28;20424;-75
2022/10/10 07:40:07;;;;;;;5.13;4.63;;;;;;;13.15;77.00;100486.19;5011956;28;20987;-75
2022/10/10 07:42:32;;;;;;;9.15;4.40;;;;;;;13.22;77.13;100489.50;5011459;28;20409;-75
2022/10/10 07:44:57;;;;;;;7.60;4.30;;;;;;;13.26;77.31;100501.53;5008354;28;20485;-75
2022/10/10 07:47:23;;;;;;;4.57;4.20;;;;;;;13.33;77.42;100488.50;5011452;28;20428;-75
2022/10/10 07:49:49;;;;;;;5.73;4.00;;;;;;;13.37;77.75;100491.53;5002025;28;20425;-76
2022/10/10 07:52:14;;;;;;;6.55;4.30;;;;;;;13.42;77.42;100497.81;5003197;28;20432;-76
2022/10/10 07:54:39;;;;;;;8.77;4.30;;;;;;;13.47;77.75;100495.13;4997101;28;20882;-75
2022/10/10 07:57:05;;;;;;;6.20;4.00;;;;;;;13.53;78.02;100506.88;5009989;28;20444;-75
2022/10/10 07:59:30;;;;;;;7.57;3.90;;;;;;;13.57;78.30;100497.06;5005370;28;20413;-75
2022/10/10 08:01:55;;;;;;;10.83;4.67;;;;;;;13.65;78.42;100488.41;5012207;28;20975;-76
2022/10/10 08:04:20;;;;;;;7.53;4.30;;;;;;;13.66;78.26;100495.50;5014364;28;20423;-76
2022/10/10 08:06:47;;;;;;;7.30;4.47;;;;;;;13.69;78.75;100502.31;5019209;28;20901;-76
2022/10/10 08:09:12;;;;;;;6.70;4.10;;;;;;;13.73;78.92;100506.97;5030679;28;20487;-75
2022/10/10 08:11:37;;;;;;;6.67;4.10;;;;;;;13.76;78.94;100502.91;5011761;28;20492;-75
2022/10/10 08:14:03;;;;;;;5.07;4.23;;;;;;;13.81;78.87;100511.09;5007078;28;20505;-75
2022/10/10 08:16:28;;;;;;;9.07;4.63;;;;;;;13.83;78.77;100504.28;5003869;28;20517;-75
2022/10/10 08:18:53;;;;;;;7.80;4.10;;;;;;;13.85;78.68;100515.75;5010418;28;20484;-75
2022/10/10 08:21:19;;;;;;;10.00;4.57;;;;;;;13.93;78.63;100515.25;5009309;28;20412;-75
2022/10/10 08:23:44;;;;;;;6.33;4.20;;;;;;;13.98;78.31;100511.72;5004232;28;20857;-75
2022/10/10 08:26:12;;;;;;;7.38;5.05;;;;;;;13.99;79.00;100516.09;5009246;28;20417;-75
2022/10/10 08:28:38;;;;;;;7.70;4.55;;;;;;;14.08;78.88;100513.69;5006328;28;20422;-75
2022/10/10 08:31:13;;;;;;;6.78;4.43;;;;;;;14.11;78.82;100502.25;5000013;28;20436;-76
2022/10/10 08:33:40;;;;;;;6.43;4.73;;;;;;;14.15;78.68;100506.06;5010199;28;20447;-75
2022/10/10 08:36:08;;;;;;;7.38;4.90;;;;;;;14.19;78.67;100510.75;5009119;28;20424;-76
2022/10/10 08:38:34;;;;;;;5.07;4.53;;;;;;;14.27;78.33;100506.66;5019193;28;20403;-75
2022/10/10 08:41:06;;;;;;;6.03;4.60;;;;;;;14.31;78.35;100499.59;5017618;28;20407;-75
2022/10/10 08:43:43;;;;;;;6.80;4.88;;;;;;;14.33;78.23;100492.81;5012115;28;20504;-75
2022/10/10 08:46:17;;;;;;;7.53;4.95;;;;;;;14.37;78.13;100502.09;5013329;28;20444;-75
2022/10/10 08:48:44;;;;;;;6.70;4.90;;;;;;;14.45;78.19;100498.03;5010625;28;20397;-75
2022/10/10 08:51:20;;;;;;;7.07;5.40;;;;;;;14.53;77.84;100500.22;5013068;28;20431;-76
2022/10/10 08:53:50;;;;;;;10.65;5.32;;;;;;;14.56;77.68;100499.66;5009958;28;20463;-76
2022/10/10 08:56:28;;;;;;;8.90;5.75;;;;;;;14.62;77.54;100505.97;5003269;28;20432;-76
2022/10/10 08:59:00;;;;;;;10.13;4.68;;;;;;;14.73;77.35;100502.16;5003863;28;20415;-76
2022/10/10 09:01:37;;;;;;;10.77;5.85;;;;;;;14.81;77.14;100497.00;5004899;28;20480;-75
2022/10/10 09:04:05;;;;;;;6.05;5.45;;;;;;;14.85;76.93;100505.47;5002966;28;20405;-74
2022/10/10 09:07:05;;;;;;;6.17;5.53;;;;;;;15.01;76.40;100510.66;5008161;28;20413;-74
2022/10/10 09:10:01;;;;;;;9.43;5.28;;;;;;;15.19;75.64;100505.72;4992574;28;20404;-76
2022/10/10 09:12:54;;;;;;;7.47;5.55;;;;;;;15.18;75.88;100504.88;5021803;28;20461;-74
2022/10/10 09:15:29;;;;;;;5.60;4.77;;;;;;;15.22;76.10;100500.53;5011421;28;20475;-74
2022/10/10 09:18:04;;;;;;;5.47;4.78;;;;;;;15.30;75.90;100502.72;5021461;28;20426;-75
2022/10/10 09:20:55;;;;;;;7.65;4.57;;;;;;;15.40;75.43;100504.63;5008891;28;20444;-76
2022/10/10 09:23:26;;;;;;;8.00;4.47;;;;;;;15.55;75.25;100496.41;5004544;28;20407;-76
2022/10/10 09:25:51;;;;;;;8.10;4.82;;;;;;;15.57;75.14;100500.53;5004746;28;20426;-76
2022/10/10 09:28:35;;;;;;;5.90;4.30;;;;;;;15.61;75.41;100491.78;5007298;28;21775;-76
2022/10/10 09:31:04;;;;;;;5.55;4.07;;;;;;;15.67;75.23;100501.59;5008377;28;20409;-76
2022/10/10 09:33:43;;;;;;;8.80;4.03;;;;;;;15.72;74.98;100496.91;5007090;28;20432;-76
2022/10/10 09:36:17;;;;;;;5.78;4.20;;;;;;;15.80;74.94;100501.81;5004253;28;20436;-76
2022/10/10 09:38:48;;;;;;;5.38;4.10;;;;;;;15.89;74.88;100502.06;5005958;28;20904;-76
2022/10/10 09:41:22;;;;;;;9.48;4.40;;;;;;;16.19;74.25;100498.38;5008499;28;20771;-76
2022/10/10 09:43:47;;;;;;;6.43;4.07;;;;;;;16.64;73.19;100491.84;5012042;28;20419;-76
2022/10/10 09:46:12;;;;;;;5.37;3.67;;;;;;;17.52;70.81;100479.56;4996092;28;20410;-76
2022/10/10 09:48:41;;;;;;;6.10;3.67;;;;;;;18.36;68.22;100478.03;5002241;28;20446;-76
2022/10/10 09:51:13;;;;;;;4.70;3.88;;;;;;;19.18;65.43;100481.16;5009245;28;20755;-76
2022/10/10 09:53:39;;;;;;;9.35;3.25;;;;;;;19.38;64.31;100480.00;5010117;28;20881;-76
2022/10/10 09:56:07;;;;;;;5.78;3.40;;;;;;;19.33;64.54;100475.41;4995421;28;20465;-76
2022/10/10 09:58:36;;;;;;;4.43;3.30;;;;;;;19.75;63.59;100474.38;5001084;28;20411;-76
2022/10/10 10:01:21;;;;;;;3.20;2.90;;;;;;;20.81;61.07;100482.28;5018675;28;20399;-77
2022/10/10 10:04:15;;;;;;;5.05;3.10;;;;;;;21.95;57.44;100490.59;5011550;28;20428;-78
2022/10/10 10:06:47;;;;;;;10.20;3.00;;;;;;;22.90;54.75;100485.22;5017538;28;20472;-78
2022/10/10 10:09:19;;;;;;;3.42;2.10;;;;;;;23.69;52.79;100485.56;5007159;28;20412;-76
2022/10/10 10:11:54;;;;;;;3.73;2.73;;;;;;;24.38;51.38;100488.81;5010527;28;20704;-75
2022/10/10 10:14:29;;;;;;;2.45;2.15;;;;;;;24.95;49.50;100491.00;5008243;28;20767;-76
2022/10/10 10:17:05;;;;;;;4.47;2.70;;;;;;;25.28;48.41;100486.28;5016908;28;20396;-76
2022/10/10 10:19:36;;;;;;;4.25;2.47;;;;;;;25.35;48.30;100486.53;5013299;28;20743;-77
2022/10/10 10:22:03;;;;;;;4.43;2.53;;;;;;;25.30;48.49;100483.97;5011934;28;20500;-76
2022/10/10 10:24:35;;;;;;;2.55;2.22;;;;;;;25.55;47.82;100484.88;5014904;28;20504;-84
2022/10/10 10:27:20;;;;;;;4.57;2.60;;;;;;;25.72;46.57;100490.19;5015084;28;20394;-78
2022/10/10 10:29:55;;;;;;;3.88;2.65;;;;;;;24.57;48.89;100494.69;5018605;28;20892;-78
2022/10/10 10:32:42;;;;;;;5.15;2.55;;;;;;;23.47;52.04;100483.03;5010118;28;20874;-80
2022/10/10 10:35:27;;;;;;;5.00;2.20;;;;;;;22.79;53.64;100490.25;5004657;28;20503;-77
2022/10/10 10:38:19;;;;;;;3.22;2.10;;;;;;;22.21;55.20;100485.97;5016966;28;20401;-78
2022/10/10 10:41:02;;;;;;;2.85;2.05;;;;;;;21.82;56.17;100496.19;5015445;28;20482;-79
2022/10/10 10:43:39;;;;;;;2.55;1.70;;;;;;;21.59;56.79;100495.44;5010475;28;20400;-79
2022/10/10 10:46:26;;;;;;;2.05;1.95;;;;;;;21.44;57.34;100495.88;5004233;28;20432;-78
2022/10/10 10:49:17;;;;;;;3.85;2.03;;;;;;;21.32;57.83;100499.19;5011504;28;20756;-80
2022/10/10 10:52:07;;;;;;;3.58;2.17;;;;;;;21.21;57.88;100492.28;5014252;28;20424;-77
2022/10/10 10:55:10;;;;;;;6.93;1.98;;;;;;;21.11;58.04;100493.38;5012768;28;20404;-78
2022/10/10 10:57:57;;;;;;;1.73;1.63;;;;;;;20.99;58.28;100487.59;5011740;28;20924;-79
2022/10/10 11:00:22;;;;;;;3.95;2.47;;;;;;;20.86;58.57;100491.22;5003837;28;20533;-78
2022/10/10 11:03:01;;;;;;;2.70;2.43;;;;;;;20.85;58.77;100488.75;5011788;28;20935;-77
2022/10/10 11:06:05;;;;;;;4.80;2.67;;;;;;;20.69;59.16;100488.31;5021968;28;20400;-78
2022/10/10 11:08:45;;;;;;;5.93;3.15;;;;;;;20.73;59.08;100485.75;4999991;28;20431;-78
2022/10/10 11:11:21;;;;;;;3.13;2.38;;;;;;;20.73;59.27;100480.25;5016580;28;20411;-78
2022/10/10 11:14:01;;;;;;;3.15;1.95;;;;;;;20.71;59.02;100481.38;5012012;28;20407;-78
2022/10/10 11:16:54;;;;;;;3.15;2.03;;;;;;;20.75;58.65;100478.81;5015556;28;20559;-77
2022/10/10 11:19:32;;;;;;;4.80;2.25;;;;;;;20.81;58.75;100471.25;5008001;28;20430;-78
2022/10/10 11:22:18;;;;;;;4.85;2.17;;;;;;;20.84;59.07;100474.19;5007180;28;20420;-78
2022/10/10 11:24:59;;;;;;;8.60;2.73;;;;;;;20.74;58.97;100479.94;5006579;28;20416;-81
2022/10/10 11:27:31;;;;;;;7.00;2.42;;;;;;;20.68;59.10;100479.22;5006860;28;20409;-77
2022/10/10 11:30:04;;;;;;;6.38;2.15;;;;;;;20.66;58.73;100475.16;5004143;28;20733;-78
2022/10/10 11:32:36;;;;;;;6.40;2.25;;;;;;;20.73;58.59;100474.75;5007460;28;20394;-78
2022/10/10 11:35:17;;;;;;;4.68;2.47;;;;;;;20.78;58.58;100469.13;5008339;28;20770;-78
2022/10/10 11:37:51;;;;;;;4.40;2.60;;;;;;;20.76;58.92;100465.84;5011190;28;20934;-77